Lahaina, HI (96761)

3:27 PM HST on December 10, 2016 (GMT -1000)
West Mahi Pua | | Change Station

Elev 256 ft 20.92 °N, 156.68 °W | Updated 21 seconds ago

Light Rain
Light Rain
70.6 °F
Feels Like 70.6 °F
N
3.0
Wind Variable Wind from SSW

Today
High -- | Low -- °F
--% Chance of Precip.
Yesterday
High -- | Low -- °F
Precip. -- in
Pressure 29.95 in
Visibility 5.0 miles
Clouds Scattered Clouds 500 ft
Overcast 1500 ft
Dew Point 70 °F
Humidity 98%
Rainfall 0.97 in
Snow Depth Not available.
6:53 AM 5:46 PM
Waxing Gibbous, 88% visible
METAR PHJH 110045Z 19005KT 5SM -RA SCT005 OVC015 21/20 A2995
Pressure 29.95 in
Visibility 5.0 miles
Clouds Scattered Clouds 500 ft
Overcast 1500 ft
Dew Point 70 °F
Humidity 98%
Rainfall 0.97 in
Snow Depth Not available.
6:53 AM 5:46 PM
Waxing Gibbous, 88% visible
METAR PHJH 110045Z 19005KT 5SM -RA SCT005 OVC015 21/20 A2995

10-Day Weather Forecast

Almanac

Astronomy

Dec. 10, 2016 Rise Set
Actual Time
Civil Twilight
Nautical Twilight
Astronomical Twilight
Moon
Length of Visible Light
Length of Day
Tomorrow will be .
, % of the Moon is Illuminated

Today's Extremes

State Highs State Lows

Community

WunderPhotos

Upload Photos

1,956,686 photos uploaded!

WunderBlog® & News

Nearby

Air Quality

  Air Quality AQ Index Pollutant
Not available.

Snow Depth

Station Depth Elevation

Earthquake Activity

City Distance Mag. Time & Date
Minimum magnitude displayed is 2.5.

Coastal Water Temperatures

Place Temperature

Stations

Nearby Weather Stations

Station Location Temp. Windchill Dew Point Humidity Wind Precip. Elev Updated Type
                   

Watches & Warnings

There are currently no watches in effect.